sensor_id;sensor_type;location;lat;lon;timestamp;pressure;altitude;pressure_sealevel;temperature;humidity
59391;BME280;53405;57.012;40.984;2022-08-25T00:02:28;101264.69;;;21.02;67.89
59391;BME280;53405;57.012;40.984;2022-08-25T00:05:16;101269.34;;;20.82;68.40
59391;BME280;53405;57.012;40.984;2022-08-25T00:08:04;101267.91;;;20.79;68.36
59391;BME280;53405;57.012;40.984;2022-08-25T00:10:52;101254.44;;;20.92;68.16
59391;BME280;53405;57.012;40.984;2022-08-25T00:13:42;101262.94;;;20.83;68.46
59391;BME280;53405;57.012;40.984;2022-08-25T00:16:31;101257.81;;;20.81;68.11
59391;BME280;53405;57.012;40.984;2022-08-25T00:19:23;101258.47;;;20.70;68.99
59391;BME280;53405;57.012;40.984;2022-08-25T00:22:11;101257.81;;;20.81;68.61
59391;BME280;53405;57.012;40.984;2022-08-25T00:24:59;101246.38;;;20.67;68.82
59391;BME280;53405;57.012;40.984;2022-08-25T00:27:48;101257.66;;;20.69;68.94
59391;BME280;53405;57.012;40.984;2022-08-25T00:30:35;101262.38;;;20.74;68.77
59391;BME280;53405;57.012;40.984;2022-08-25T00:33:24;101250.06;;;20.66;69.22
59391;BME280;53405;57.012;40.984;2022-08-25T00:36:18;101248.41;;;20.65;69.19
59391;BME280;53405;57.012;40.984;2022-08-25T00:39:07;101250.69;;;20.62;69.61
59391;BME280;53405;57.012;40.984;2022-08-25T00:41:56;101251.31;;;20.57;70.01
59391;BME280;53405;57.012;40.984;2022-08-25T00:44:44;101244.78;;;20.46;69.97
59391;BME280;53405;57.012;40.984;2022-08-25T00:47:32;101251.59;;;20.42;70.01
59391;BME280;53405;57.012;40.984;2022-08-25T00:50:20;101256.16;;;20.35;70.23
59391;BME280;53405;57.012;40.984;2022-08-25T00:53:08;101258.69;;;20.23;70.59
59391;BME280;53405;57.012;40.984;2022-08-25T00:55:56;101260.09;;;20.26;70.27
59391;BME280;53405;57.012;40.984;2022-08-25T00:58:45;101255.59;;;20.26;70.42
59391;BME280;53405;57.012;40.984;2022-08-25T01:01:32;101261.16;;;20.25;70.69
59391;BME280;53405;57.012;40.984;2022-08-25T01:04:21;101257.66;;;20.17;70.60
59391;BME280;53405;57.012;40.984;2022-08-25T01:07:08;101257.91;;;20.09;70.94
59391;BME280;53405;57.012;40.984;2022-08-25T01:09:58;101262.63;;;20.07;71.10
59391;BME280;53405;57.012;40.984;2022-08-25T01:12:46;101253.19;;;19.98;71.45
59391;BME280;53405;57.012;40.984;2022-08-25T01:15:35;101260.63;;;19.89;71.74
59391;BME280;53405;57.012;40.984;2022-08-25T01:18:23;101238.63;;;19.87;71.62
59391;BME280;53405;57.012;40.984;2022-08-25T01:21:11;101251.56;;;19.90;71.98
59391;BME280;53405;57.012;40.984;2022-08-25T01:24:00;101250.34;;;19.86;71.76
59391;BME280;53405;57.012;40.984;2022-08-25T01:26:47;101253.22;;;19.84;72.14
59391;BME280;53405;57.012;40.984;2022-08-25T01:29:36;101253.63;;;19.75;72.53
59391;BME280;53405;57.012;40.984;2022-08-25T01:32:23;101254.03;;;19.78;72.12
59391;BME280;53405;57.012;40.984;2022-08-25T01:35:11;101253.00;;;19.73;72.66
59391;BME280;53405;57.012;40.984;2022-08-25T01:38:00;101251.16;;;19.66;72.71
59391;BME280;53405;57.012;40.984;2022-08-25T01:40:48;101257.75;;;19.57;72.90
59391;BME280;53405;57.012;40.984;2022-08-25T01:43:37;101258.78;;;19.70;72.61
59391;BME280;53405;57.012;40.984;2022-08-25T01:46:25;101266.16;;;19.67;73.09
59391;BME280;53405;57.012;40.984;2022-08-25T01:49:13;101254.66;;;19.60;73.31
59391;BME280;53405;57.012;40.984;2022-08-25T01:52:18;101245.41;;;19.56;73.17
59391;BME280;53405;57.012;40.984;2022-08-25T01:55:07;101250.94;;;19.75;72.46
59391;BME280;53405;57.012;40.984;2022-08-25T01:57:56;101254.44;;;19.75;72.31
59391;BME280;53405;57.012;40.984;2022-08-25T02:00:48;101251.59;;;19.77;72.40
59391;BME280;53405;57.012;40.984;2022-08-25T02:03:41;101251.78;;;19.68;72.75
59391;BME280;53405;57.012;40.984;2022-08-25T02:06:32;101230.41;;;19.62;72.36
59391;BME280;53405;57.012;40.984;2022-08-25T02:09:19;101250.75;;;19.56;72.93
59391;BME280;53405;57.012;40.984;2022-08-25T02:12:07;101246.25;;;19.63;72.51
59391;BME280;53405;57.012;40.984;2022-08-25T02:15:18;101253.00;;;19.59;72.26
59391;BME280;53405;57.012;40.984;2022-08-25T02:18:06;101260.22;;;19.52;72.51
59391;BME280;53405;57.012;40.984;2022-08-25T02:20:53;101253.63;;;19.55;72.30
59391;BME280;53405;57.012;40.984;2022-08-25T02:23:41;101259.19;;;19.60;72.50
59391;BME280;53405;57.012;40.984;2022-08-25T02:26:29;101261.25;;;19.44;72.32
59391;BME280;53405;57.012;40.984;2022-08-25T02:29:17;101268.44;;;19.50;72.59
59391;BME280;53405;57.012;40.984;2022-08-25T02:32:05;101263.09;;;19.50;72.58
59391;BME280;53405;57.012;40.984;2022-08-25T02:34:53;101252.84;;;19.47;72.52
59391;BME280;53405;57.012;40.984;2022-08-25T02:37:40;101261.47;;;19.43;73.10
59391;BME280;53405;57.012;40.984;2022-08-25T02:40:28;101259.81;;;19.42;72.87
59391;BME280;53405;57.012;40.984;2022-08-25T02:43:16;101257.75;;;19.50;72.74
59391;BME280;53405;57.012;40.984;2022-08-25T02:46:04;101253.03;;;19.53;72.98
59391;BME280;53405;57.012;40.984;2022-08-25T02:48:52;101256.09;;;19.56;73.40
59391;BME280;53405;57.012;40.984;2022-08-25T02:51:39;101258.16;;;19.61;73.12
59391;BME280;53405;57.012;40.984;2022-08-25T02:54:27;101257.53;;;19.65;73.05
59391;BME280;53405;57.012;40.984;2022-08-25T02:57:15;101253.84;;;19.66;72.90
59391;BME280;53405;57.012;40.984;2022-08-25T03:00:04;101250.75;;;19.70;72.55
59391;BME280;53405;57.012;40.984;2022-08-25T03:02:52;101255.66;;;19.66;72.89
59391;BME280;53405;57.012;40.984;2022-08-25T03:05:40;101258.56;;;19.78;72.65
59391;BME280;53405;57.012;40.984;2022-08-25T03:08:27;101258.78;;;19.76;72.49
59391;BME280;53405;57.012;40.984;2022-08-25T03:11:16;101256.09;;;19.70;72.98
59391;BME280;53405;57.012;40.984;2022-08-25T03:14:05;101261.84;;;19.73;72.90
59391;BME280;53405;57.012;40.984;2022-08-25T03:16:53;101261.47;;;19.76;72.62
59391;BME280;53405;57.012;40.984;2022-08-25T03:19:42;101255.25;;;19.69;72.70
59391;BME280;53405;57.012;40.984;2022-08-25T03:22:29;101249.28;;;19.74;72.67
59391;BME280;53405;57.012;40.984;2022-08-25T03:25:17;101258.16;;;19.88;72.23
59391;BME280;53405;57.012;40.984;2022-08-25T03:28:24;101250.75;;;19.83;72.27
59391;BME280;53405;57.012;40.984;2022-08-25T03:31:12;101242.53;;;19.71;72.25
59391;BME280;53405;57.012;40.984;2022-08-25T03:34:03;101247.03;;;19.71;72.29
59391;BME280;53405;57.012;40.984;2022-08-25T03:36:51;101251.59;;;19.77;72.17
59391;BME280;53405;57.012;40.984;2022-08-25T03:39:39;101252.59;;;19.76;72.16
59391;BME280;53405;57.012;40.984;2022-08-25T03:42:26;101242.31;;;19.86;72.04
59391;BME280;53405;57.012;40.984;2022-08-25T03:45:15;101244.19;;;19.85;72.09
59391;BME280;53405;57.012;40.984;2022-08-25T03:48:03;101241.69;;;19.91;71.89
59391;BME280;53405;57.012;40.984;2022-08-25T03:50:51;101240.47;;;19.93;71.67
59391;BME280;53405;57.012;40.984;2022-08-25T03:53:40;101237.97;;;19.98;71.69
59391;BME280;53405;57.012;40.984;2022-08-25T03:56:28;101236.50;;;20.09;71.04
59391;BME280;53405;57.012;40.984;2022-08-25T03:59:16;101235.84;;;20.20;70.82
59391;BME280;53405;57.012;40.984;2022-08-25T04:02:05;101230.06;;;20.24;70.79
59391;BME280;53405;57.012;40.984;2022-08-25T04:04:53;101232.34;;;20.20;70.75
59391;BME280;53405;57.012;40.984;2022-08-25T04:07:40;101227.78;;;20.34;70.09
59391;BME280;53405;57.012;40.984;2022-08-25T04:10:28;101230.38;;;20.47;69.74
59391;BME280;53405;57.012;40.984;2022-08-25T04:13:16;101208.59;;;20.44;69.35
59391;BME280;53405;57.012;40.984;2022-08-25T04:16:11;101235.66;;;20.67;69.03
59391;BME280;53405;57.012;40.984;2022-08-25T04:19:03;101205.78;;;20.64;68.75
59391;BME280;53405;57.012;40.984;2022-08-25T04:21:52;101211.69;;;20.79;67.78
59391;BME280;53405;57.012;40.984;2022-08-25T04:24:41;101206.28;;;20.86;67.14
59391;BME280;53405;57.012;40.984;2022-08-25T04:27:29;101195.56;;;20.92;67.17
59391;BME280;53405;57.012;40.984;2022-08-25T04:30:17;101197.53;;;21.04;66.40
59391;BME280;53405;57.012;40.984;2022-08-25T04:33:04;101209.09;;;21.23;65.82
59391;BME280;53405;57.012;40.984;2022-08-25T04:35:52;101183.56;;;21.20;65.12
59391;BME280;53405;57.012;40.984;2022-08-25T04:38:41;101207.50;;;21.40;65.00
59391;BME280;53405;57.012;40.984;2022-08-25T04:41:29;101202.06;;;21.54;64.65
59391;BME280;53405;57.012;40.984;2022-08-25T04:44:17;101141.13;;;21.24;64.12
59391;BME280;53405;57.012;40.984;2022-08-25T04:47:05;101173.78;;;21.58;63.09
59391;BME280;53405;57.012;40.984;2022-08-25T04:49:53;101178.41;;;21.88;62.12
59391;BME280;53405;57.012;40.984;2022-08-25T04:52:40;101205.94;;;22.13;62.54
59391;BME280;53405;57.012;40.984;2022-08-25T04:55:28;101197.44;;;22.35;61.35
59391;BME280;53405;57.012;40.984;2022-08-25T04:58:16;101207.66;;;22.57;60.51
59391;BME280;53405;57.012;40.984;2022-08-25T05:01:13;101199.19;;;22.71;60.23
59391;BME280;53405;57.012;40.984;2022-08-25T05:04:06;101198.38;;;22.83;59.95
59391;BME280;53405;57.012;40.984;2022-08-25T05:06:54;101192.13;;;23.01;59.49
59391;BME280;53405;57.012;40.984;2022-08-25T05:09:42;101191.59;;;23.11;58.98
59391;BME280;53405;57.012;40.984;2022-08-25T05:12:29;101188.41;;;23.25;57.90
59391;BME280;53405;57.012;40.984;2022-08-25T05:15:17;101182.81;;;23.27;58.08
59391;BME280;53405;57.012;40.984;2022-08-25T05:18:26;101185.84;;;23.42;57.52
59391;BME280;53405;57.012;40.984;2022-08-25T05:21:21;101182.22;;;23.49;56.70
59391;BME280;53405;57.012;40.984;2022-08-25T05:24:08;101184.47;;;23.63;57.13
59391;BME280;53405;57.012;40.984;2022-08-25T05:26:56;101182.34;;;23.66;56.99
59391;BME280;53405;57.012;40.984;2022-08-25T05:29:44;101182.91;;;23.79;56.47
59391;BME280;53405;57.012;40.984;2022-08-25T05:32:32;101192.97;;;23.84;56.61
59391;BME280;53405;57.012;40.984;2022-08-25T05:35:20;101190.72;;;23.93;56.23
59391;BME280;53405;57.012;40.984;2022-08-25T05:38:22;101181.00;;;24.04;55.36
59391;BME280;53405;57.012;40.984;2022-08-25T05:41:13;101185.25;;;24.16;55.27
59391;BME280;53405;57.012;40.984;2022-08-25T05:44:02;101184.41;;;24.28;54.72
59391;BME280;53405;57.012;40.984;2022-08-25T05:46:50;101189.03;;;24.44;53.82
59391;BME280;53405;57.012;40.984;2022-08-25T05:49:38;101188.19;;;24.44;54.03
59391;BME280;53405;57.012;40.984;2022-08-25T05:52:27;101185.94;;;24.52;53.74
59391;BME280;53405;57.012;40.984;2022-08-25T05:55:14;101181.13;;;24.54;53.34
59391;BME280;53405;57.012;40.984;2022-08-25T05:58:02;101162.97;;;24.62;51.75
59391;BME280;53405;57.012;40.984;2022-08-25T06:00:50;101181.69;;;24.85;51.50
59391;BME280;53405;57.012;40.984;2022-08-25T06:03:37;101185.34;;;24.96;51.04
59391;BME280;53405;57.012;40.984;2022-08-25T06:06:25;101184.69;;;25.06;49.80
59391;BME280;53405;57.012;40.984;2022-08-25T06:09:13;101188.28;;;25.12;50.12
59391;BME280;53405;57.012;40.984;2022-08-25T06:12:00;101181.88;;;25.18;49.85
59391;BME280;53405;57.012;40.984;2022-08-25T06:14:49;101188.50;;;25.27;50.15
59391;BME280;53405;57.012;40.984;2022-08-25T06:17:37;101183.56;;;25.36;49.72
59391;BME280;53405;57.012;40.984;2022-08-25T06:20:29;101184.25;;;25.48;49.81
59391;BME280;53405;57.012;40.984;2022-08-25T06:23:18;101173.09;;;25.61;49.67
59391;BME280;53405;57.012;40.984;2022-08-25T06:26:09;101179.50;;;25.77;49.30
59391;BME280;53405;57.012;40.984;2022-08-25T06:28:57;101171.28;;;25.89;49.35
59391;BME280;53405;57.012;40.984;2022-08-25T06:31:45;101185.75;;;26.00;48.83
59391;BME280;53405;57.012;40.984;2022-08-25T06:34:33;101180.91;;;26.02;48.50
59391;BME280;53405;57.012;40.984;2022-08-25T06:37:21;101191.31;;;26.15;48.50
59391;BME280;53405;57.012;40.984;2022-08-25T06:40:11;101174.44;;;26.25;48.63
59391;BME280;53405;57.012;40.984;2022-08-25T06:43:00;101174.22;;;26.32;48.59
59391;BME280;53405;57.012;40.984;2022-08-25T06:45:47;101185.34;;;26.41;47.66
59391;BME280;53405;57.012;40.984;2022-08-25T06:48:35;101178.94;;;26.47;47.24
59391;BME280;53405;57.012;40.984;2022-08-25T06:51:24;101183.69;;;26.62;46.77
59391;BME280;53405;57.012;40.984;2022-08-25T06:54:13;101175.66;;;26.67;46.70
59391;BME280;53405;57.012;40.984;2022-08-25T06:57:02;101176.03;;;26.81;46.21
59391;BME280;53405;57.012;40.984;2022-08-25T06:59:50;101166.84;;;26.82;46.21
59391;BME280;53405;57.012;40.984;2022-08-25T07:02:38;101182.97;;;27.04;45.23
59391;BME280;53405;57.012;40.984;2022-08-25T07:05:28;101159.16;;;27.01;44.82
59391;BME280;53405;57.012;40.984;2022-08-25T07:08:20;101175.00;;;27.25;45.25
59391;BME280;53405;57.012;40.984;2022-08-25T07:11:10;101177.50;;;27.36;44.91
59391;BME280;53405;57.012;40.984;2022-08-25T07:14:01;101163.47;;;27.39;44.60
59391;BME280;53405;57.012;40.984;2022-08-25T07:16:54;101180.88;;;27.59;44.34
59391;BME280;53405;57.012;40.984;2022-08-25T07:19:41;101182.78;;;27.64;43.18
59391;BME280;53405;57.012;40.984;2022-08-25T07:22:29;101177.69;;;27.72;43.19
59391;BME280;53405;57.012;40.984;2022-08-25T07:25:17;101182.34;;;27.87;41.77
59391;BME280;53405;57.012;40.984;2022-08-25T07:28:05;101187.56;;;27.99;40.51
59391;BME280;53405;57.012;40.984;2022-08-25T07:30:52;101167.47;;;27.90;40.65
59391;BME280;53405;57.012;40.984;2022-08-25T07:33:40;101187.84;;;28.08;40.53
59391;BME280;53405;57.012;40.984;2022-08-25T07:36:48;101182.22;;;28.25;39.78
59391;BME280;53405;57.012;40.984;2022-08-25T07:39:36;101176.03;;;28.40;39.34
59391;BME280;53405;57.012;40.984;2022-08-25T07:42:24;101165.97;;;28.45;39.92
59391;BME280;53405;57.012;40.984;2022-08-25T07:45:14;101182.00;;;28.73;38.96
59391;BME280;53405;57.012;40.984;2022-08-25T07:48:10;101179.84;;;28.90;38.45
59391;BME280;53405;57.012;40.984;2022-08-25T07:50:58;101160.63;;;28.71;38.36
59391;BME280;53405;57.012;40.984;2022-08-25T07:53:47;101177.94;;;28.75;38.22
59391;BME280;53405;57.012;40.984;2022-08-25T07:56:34;101167.91;;;28.71;37.92
59391;BME280;53405;57.012;40.984;2022-08-25T07:59:22;101173.34;;;28.71;38.45
59391;BME280;53405;57.012;40.984;2022-08-25T08:02:12;101169.28;;;28.73;38.62
59391;BME280;53405;57.012;40.984;2022-08-25T08:05:00;101166.03;;;28.76;38.16
59391;BME280;53405;57.012;40.984;2022-08-25T08:07:49;101165.22;;;28.81;38.10
59391;BME280;53405;57.012;40.984;2022-08-25T08:10:41;101152.44;;;28.51;38.13
59391;BME280;53405;57.012;40.984;2022-08-25T08:13:48;101158.97;;;28.50;38.58
59391;BME280;53405;57.012;40.984;2022-08-25T08:16:36;101164.66;;;28.58;39.26
59391;BME280;53405;57.012;40.984;2022-08-25T08:19:29;101154.63;;;28.84;38.56
59391;BME280;53405;57.012;40.984;2022-08-25T08:22:17;101152.97;;;29.04;38.41
59391;BME280;53405;57.012;40.984;2022-08-25T08:25:06;101156.47;;;29.41;37.45
59391;BME280;53405;57.012;40.984;2022-08-25T08:27:55;101132.59;;;29.32;37.03
59391;BME280;53405;57.012;40.984;2022-08-25T08:30:42;101149.84;;;29.67;36.39
59391;BME280;53405;57.012;40.984;2022-08-25T08:33:30;101147.75;;;30.09;34.68
59391;BME280;53405;57.012;40.984;2022-08-25T08:36:18;101148.09;;;29.92;35.22
59391;BME280;53405;57.012;40.984;2022-08-25T08:39:06;101149.81;;;29.72;35.85
59391;BME280;53405;57.012;40.984;2022-08-25T08:51:34;101143.66;;;30.06;34.65
59391;BME280;53405;57.012;40.984;2022-08-25T08:54:28;101137.06;;;30.23;35.53
59391;BME280;53405;57.012;40.984;2022-08-25T08:57:21;101136.47;;;30.66;33.67
59391;BME280;53405;57.012;40.984;2022-08-25T09:00:12;101136.41;;;30.71;33.14
59391;BME280;53405;57.012;40.984;2022-08-25T09:03:10;101136.97;;;30.38;32.81
59391;BME280;53405;57.012;40.984;2022-08-25T09:06:04;101136.81;;;30.59;33.50
59391;BME280;53405;57.012;40.984;2022-08-25T09:08:54;101124.47;;;30.96;33.71
59391;BME280;53405;57.012;40.984;2022-08-25T09:12:14;101121.78;;;31.20;33.72
59391;BME280;53405;57.012;40.984;2022-08-25T09:19:12;101134.22;;;31.75;31.57
59391;BME280;53405;57.012;40.984;2022-08-25T09:21:42;101105.22;;;31.65;30.47
59391;BME280;53405;57.012;40.984;2022-08-25T09:24:54;101124.00;;;31.66;30.03
59391;BME280;53405;57.012;40.984;2022-08-25T09:27:50;101121.94;;;31.77;30.40
59391;BME280;53405;57.012;40.984;2022-08-25T09:31:00;101128.97;;;31.97;30.56
59391;BME280;53405;57.012;40.984;2022-08-25T09:33:55;101102.34;;;31.56;30.33
59391;BME280;53405;57.012;40.984;2022-08-25T09:36:43;101115.00;;;31.85;31.16
59391;BME280;53405;57.012;40.984;2022-08-25T09:39:34;101109.00;;;32.73;29.57
59391;BME280;53405;57.012;40.984;2022-08-25T09:42:46;101107.94;;;33.29;27.86
59391;BME280;53405;57.012;40.984;2022-08-25T09:45:41;101112.91;;;33.41;27.86
59391;BME280;53405;57.012;40.984;2022-08-25T09:48:32;101105.97;;;33.58;27.98
59391;BME280;53405;57.012;40.984;2022-08-25T09:51:36;101101.84;;;33.74;27.95
59391;BME280;53405;57.012;40.984;2022-08-25T09:54:30;101100.75;;;34.20;26.84
59391;BME280;53405;57.012;40.984;2022-08-25T09:57:33;101102.59;;;34.34;27.00
59391;BME280;53405;57.012;40.984;2022-08-25T10:00:30;101096.44;;;34.51;26.32
59391;BME280;53405;57.012;40.984;2022-08-25T10:03:21;101089.47;;;34.67;25.59
59391;BME280;53405;57.012;40.984;2022-08-25T10:06:14;101083.53;;;33.97;26.17
59391;BME280;53405;57.012;40.984;2022-08-25T10:09:05;101079.25;;;33.68;26.44
59391;BME280;53405;57.012;40.984;2022-08-25T10:11:53;101086.31;;;33.33;27.84
59391;BME280;53405;57.012;40.984;2022-08-25T10:14:42;101076.06;;;33.53;27.14
59391;BME280;53405;57.012;40.984;2022-08-25T10:17:31;101059.06;;;33.56;27.55
59391;BME280;53405;57.012;40.984;2022-08-25T10:23:12;101066.41;;;34.60;26.87
59391;BME280;53405;57.012;40.984;2022-08-25T10:26:05;101056.13;;;34.97;25.96
59391;BME280;53405;57.012;40.984;2022-08-25T10:29:21;101054.78;;;34.85;26.46
59391;BME280;53405;57.012;40.984;2022-08-25T10:32:19;101042.78;;;35.04;25.26
59391;BME280;53405;57.012;40.984;2022-08-25T10:35:12;101036.97;;;34.88;25.15
59391;BME280;53405;57.012;40.984;2022-08-25T10:56:39;101018.06;;;35.35;24.44
59391;BME280;53405;57.012;40.984;2022-08-25T11:02:50;101012.59;;;35.35;25.16
59391;BME280;53405;57.012;40.984;2022-08-25T11:08:49;101012.44;;;35.67;23.49
59391;BME280;53405;57.012;40.984;2022-08-25T11:11:44;101003.09;;;35.50;24.40
59391;BME280;53405;57.012;40.984;2022-08-25T11:14:38;100996.94;;;35.97;24.41
59391;BME280;53405;57.012;40.984;2022-08-25T11:17:35;100999.06;;;36.39;23.78
59391;BME280;53405;57.012;40.984;2022-08-25T11:20:40;100985.47;;;36.12;24.16
59391;BME280;53405;57.012;40.984;2022-08-25T11:23:37;100973.09;;;35.71;25.05
59391;BME280;53405;57.012;40.984;2022-08-25T11:26:29;100992.81;;;36.29;24.51
59391;BME280;53405;57.012;40.984;2022-08-25T11:29:27;100977.78;;;36.35;22.27
59391;BME280;53405;57.012;40.984;2022-08-25T11:32:19;100976.72;;;36.10;22.72
59391;BME280;53405;57.012;40.984;2022-08-25T11:35:10;100978.53;;;36.53;22.76
59391;BME280;53405;57.012;40.984;2022-08-25T11:38:17;100969.88;;;36.72;21.57
59391;BME280;53405;57.012;40.984;2022-08-25T11:51:05;100950.84;;;36.97;22.31
59391;BME280;53405;57.012;40.984;2022-08-25T11:57:09;100952.78;;;36.76;22.53
59391;BME280;53405;57.012;40.984;2022-08-25T12:06:28;100940.53;;;36.73;22.84
59391;BME280;53405;57.012;40.984;2022-08-25T12:09:18;100946.72;;;36.23;23.42
59391;BME280;53405;57.012;40.984;2022-08-25T12:12:29;100941.38;;;36.26;23.65
59391;BME280;53405;57.012;40.984;2022-08-25T12:21:13;100939.41;;;36.65;22.77
59391;BME280;53405;57.012;40.984;2022-08-25T12:27:00;100923.13;;;35.74;23.92
59391;BME280;53405;57.012;40.984;2022-08-25T12:29:56;100918.19;;;35.76;23.67
59391;BME280;53405;57.012;40.984;2022-08-25T12:32:53;100910.81;;;35.33;24.62
59391;BME280;53405;57.012;40.984;2022-08-25T12:35:52;100920.78;;;35.20;24.10
59391;BME280;53405;57.012;40.984;2022-08-25T12:38:44;100912.06;;;34.74;25.67
59391;BME280;53405;57.012;40.984;2022-08-25T12:41:34;100902.94;;;34.30;25.32
59391;BME280;53405;57.012;40.984;2022-08-25T12:44:42;100899.41;;;33.98;26.10
59391;BME280;53405;57.012;40.984;2022-08-25T12:47:30;100908.78;;;33.83;26.61
59391;BME280;53405;57.012;40.984;2022-08-25T12:50:43;100897.72;;;33.57;27.30
59391;BME280;53405;57.012;40.984;2022-08-25T12:53:49;100898.31;;;33.31;26.26
59391;BME280;53405;57.012;40.984;2022-08-25T12:56:45;100902.06;;;32.99;27.17
59391;BME280;53405;57.012;40.984;2022-08-25T12:59:40;100887.34;;;32.86;26.52
59391;BME280;53405;57.012;40.984;2022-08-25T13:15:47;100890.00;;;32.22;28.35
59391;BME280;53405;57.012;40.984;2022-08-25T13:18:43;100885.97;;;32.19;28.69
59391;BME280;53405;57.012;40.984;2022-08-25T13:21:41;100883.34;;;32.14;29.18
59391;BME280;53405;57.012;40.984;2022-08-25T13:24:33;100870.53;;;32.15;28.87
59391;BME280;53405;57.012;40.984;2022-08-25T13:27:25;100881.78;;;32.08;28.71
59391;BME280;53405;57.012;40.984;2022-08-25T13:30:29;100883.44;;;32.09;28.90
59391;BME280;53405;57.012;40.984;2022-08-25T13:33:20;100880.22;;;32.21;29.33
59391;BME280;53405;57.012;40.984;2022-08-25T13:36:15;100879.84;;;32.28;29.15
59391;BME280;53405;57.012;40.984;2022-08-25T13:39:23;100873.13;;;32.34;29.18
59391;BME280;53405;57.012;40.984;2022-08-25T13:42:19;100873.16;;;32.20;29.45
59391;BME280;53405;57.012;40.984;2022-08-25T13:45:07;100846.91;;;32.10;30.82
59391;BME280;53405;57.012;40.984;2022-08-25T13:47:58;100871.13;;;32.12;31.52
59391;BME280;53405;57.012;40.984;2022-08-25T13:50:46;100869.06;;;32.03;32.05
59391;BME280;53405;57.012;40.984;2022-08-25T13:53:34;100867.16;;;31.90;29.24
59391;BME280;53405;57.012;40.984;2022-08-25T13:56:36;100859.16;;;31.80;28.19
59391;BME280;53405;57.012;40.984;2022-08-25T13:59:32;100848.47;;;31.69;27.69
59391;BME280;53405;57.012;40.984;2022-08-25T14:02:45;100853.19;;;31.64;27.12
59391;BME280;53405;57.012;40.984;2022-08-25T14:05:39;100852.81;;;31.51;28.21
59391;BME280;53405;57.012;40.984;2022-08-25T14:08:37;100855.81;;;31.55;29.73
59391;BME280;53405;57.012;40.984;2022-08-25T14:11:44;100838.13;;;31.52;27.57
59391;BME280;53405;57.012;40.984;2022-08-25T14:14:33;100861.56;;;31.67;28.13
59391;BME280;53405;57.012;40.984;2022-08-25T14:17:21;100853.19;;;31.64;27.14
59391;BME280;53405;57.012;40.984;2022-08-25T14:20:25;100850.38;;;31.55;26.91
59391;BME280;53405;57.012;40.984;2022-08-25T14:23:22;100849.53;;;31.55;27.61
59391;BME280;53405;57.012;40.984;2022-08-25T14:26:11;100820.06;;;31.43;28.46
59391;BME280;53405;57.012;40.984;2022-08-25T14:28:59;100838.53;;;31.46;27.80
59391;BME280;53405;57.012;40.984;2022-08-25T14:31:49;100843.53;;;31.39;28.40
59391;BME280;53405;57.012;40.984;2022-08-25T14:34:38;100838.09;;;31.39;28.58
59391;BME280;53405;57.012;40.984;2022-08-25T14:37:26;100832.94;;;31.37;27.06
59391;BME280;53405;57.012;40.984;2022-08-25T14:40:15;100825.97;;;31.31;27.16
59391;BME280;53405;57.012;40.984;2022-08-25T14:43:06;100825.38;;;31.34;26.70
59391;BME280;53405;57.012;40.984;2022-08-25T14:45:54;100813.25;;;31.26;26.93
59391;BME280;53405;57.012;40.984;2022-08-25T14:48:44;100825.63;;;31.19;27.67
59391;BME280;53405;57.012;40.984;2022-08-25T14:51:32;100823.28;;;31.12;26.93
59391;BME280;53405;57.012;40.984;2022-08-25T14:54:24;100808.75;;;31.03;26.85
59391;BME280;53405;57.012;40.984;2022-08-25T14:57:12;100813.97;;;30.99;27.09
59391;BME280;53405;57.012;40.984;2022-08-25T15:00:01;100811.00;;;30.95;27.10
59391;BME280;53405;57.012;40.984;2022-08-25T15:02:51;100808.34;;;30.90;27.19
59391;BME280;53405;57.012;40.984;2022-08-25T15:05:39;100809.41;;;30.75;28.19
59391;BME280;53405;57.012;40.984;2022-08-25T15:08:28;100805.88;;;30.75;29.13
59391;BME280;53405;57.012;40.984;2022-08-25T15:11:35;100795.34;;;30.68;29.63
59391;BME280;53405;57.012;40.984;2022-08-25T15:14:23;100790.16;;;30.53;29.21
59391;BME280;53405;57.012;40.984;2022-08-25T15:17:12;100802.69;;;30.49;30.54
59391;BME280;53405;57.012;40.984;2022-08-25T15:20:00;100781.28;;;30.23;29.69
59391;BME280;53405;57.012;40.984;2022-08-25T15:22:49;100794.03;;;30.22;29.51
59391;BME280;53405;57.012;40.984;2022-08-25T15:25:37;100771.00;;;29.96;29.61
59391;BME280;53405;57.012;40.984;2022-08-25T15:28:25;100787.81;;;29.98;29.77
59391;BME280;53405;57.012;40.984;2022-08-25T15:31:18;100793.94;;;29.84;32.33
59391;BME280;53405;57.012;40.984;2022-08-25T15:34:07;100791.66;;;29.67;31.38
59391;BME280;53405;57.012;40.984;2022-08-25T15:36:56;100785.81;;;29.55;32.13
59391;BME280;53405;57.012;40.984;2022-08-25T15:39:44;100800.03;;;29.42;32.50
59391;BME280;53405;57.012;40.984;2022-08-25T15:42:33;100792.56;;;29.28;32.97
59391;BME280;53405;57.012;40.984;2022-08-25T15:45:22;100785.59;;;29.12;33.41
59391;BME280;53405;57.012;40.984;2022-08-25T15:48:10;100789.19;;;29.02;33.59
59391;BME280;53405;57.012;40.984;2022-08-25T15:50:58;100767.94;;;28.80;34.07
59391;BME280;53405;57.012;40.984;2022-08-25T15:53:47;100784.19;;;28.80;34.55
59391;BME280;53405;57.012;40.984;2022-08-25T15:56:35;100778.28;;;28.73;35.59
59391;BME280;53405;57.012;40.984;2022-08-25T15:59:24;100778.63;;;28.61;36.31
59391;BME280;53405;57.012;40.984;2022-08-25T16:02:11;100781.91;;;28.53;35.87
59391;BME280;53405;57.012;40.984;2022-08-25T16:04:59;100780.91;;;28.38;36.77
59391;BME280;53405;57.012;40.984;2022-08-25T16:07:48;100791.72;;;28.33;37.57